Soekarno-Hatta International Airport
WIII : now visible

Aeroporto :











RITROVATECI SU...

 
LOGIN :

Iscrizione | Disclaimer

   EN    FR    IT 

 









Sommario :    VFR   VFR Marginale   IFR   IFR Intensivo   IFR Molto Intensivo
Visibilità : 
Base nubi : 
>= 8 km
>= 3000ft
5 / 8 km
1000 / 3000 ft
1500m / 5 km
500 / 1000 ft
800 / 1500m
200 / 500 ft
< 800m
< 200 ft
Simboli :   Temporali  Nebbia  Neve Forte  Precipitazioni Forti  Vento > 20 kt






- Altitudine del aeroporto : 34 ft
- Codice IATA : CGK


WIII - Soekarno-Hatta International

ULTIMO METAR :
  • 171830Z 29006KT 5000 -RA FEW020CB OVC020 25/23 Q1012 TEMPO FM1900 TL1930 30010KT TSRA RMK CB TO NW

METARs OBSOLETI :
  • 171800Z 26004KT 5000 -RA FEW020CB OVC020 25/23 Q1012 TEMPO FM1900 TSRA RMK CB TO NW
  • 171730Z 26008KT 5000 BR FEW020CB BKN020 26/24 Q1012 TEMPO FM1800 SHRA RMK CB TO NW
  • 171700Z 25005KT 3500 BR FEW020CB BKN020 26/24 Q1013 TEMPO FM1800 SHRA RMK CB TO NW
  • 171630Z 28003KT 3500 BKN020 26/24 Q1013 NOSIG
  • 171600Z 31003KT 3500 BR BKN020 26/24 Q1013 NOSIG

TAF TAF WIII
Valido dal 17 a 18 ore il 19 a 00 ore UTC


171700Z 1718/1824 24003KT 3000 BR BKN020
TEMPO 1718/1721 29010KT TSRA FEW015CB
BECMG 1800/1802 34010KT 8000 NSW
TEMPO 1804/1808 26010G20KT 3000 TSRA FEW015CB OVC018
BECMG 1812/1814 23003KT



MetMap, La meteo Aeronautica in un colpo d'occhio ! - Copyright ORBIFLY Dicembre 2007 - Disclaimer

ORBIFLY MET'MAP TEAM :

Programmazione e sviluppo : Alexandra Zaïnal
Concezione : Baudouin d'Aumeries
Aiuto per la programmazione : Marc-Olivier Méhu
Supporto tecnico e logistico : Manuel Goepfert
Aiuto per la traduzione : Arnaldo La Scala

Contatto : metmap@orbifly.com




FONTI E CREDITI :

   NOAA       Earth
Advisory